createdAt,value
2022-12-31T00:01:26.569Z,3.25
2022-12-31T00:03:32.063Z,8.35
2022-12-31T00:05:38.290Z,11.13
2022-12-31T00:09:46.667Z,8.57
2022-12-31T00:11:51.395Z,5.03
2022-12-31T00:13:59.325Z,12.70
2022-12-31T00:16:12.316Z,7.75
2022-12-31T00:18:17.951Z,8.55
2022-12-31T00:20:22.828Z,7.72
2022-12-31T00:22:27.604Z,10.35
2022-12-31T00:24:33.401Z,11.63
2022-12-31T00:26:38.727Z,13.00
2022-12-31T00:28:44.139Z,5.18
2022-12-31T00:30:51.654Z,8.63
2022-12-31T00:32:56.647Z,6.80
2022-12-31T00:35:01.656Z,3.90
2022-12-31T00:37:06.488Z,8.93
2022-12-31T00:39:13.338Z,8.95
2022-12-31T00:41:19.549Z,8.25
2022-12-31T00:43:24.490Z,3.78
2022-12-31T00:45:29.428Z,13.43
2022-12-31T00:47:36.852Z,9.18
2022-12-31T00:49:41.543Z,8.98
2022-12-31T00:51:48.480Z,7.47
2022-12-31T00:53:53.373Z,7.20
2022-12-31T00:56:02.781Z,7.20
2022-12-31T00:58:07.693Z,8.38
2022-12-31T01:00:14.482Z,5.10
2022-12-31T01:02:21.814Z,9.90
2022-12-31T01:04:30.924Z,9.73
2022-12-31T01:06:35.829Z,10.43
2022-12-31T01:08:40.713Z,9.73
2022-12-31T01:10:58.035Z,5.97
2022-12-31T01:13:03.021Z,9.57
2022-12-31T01:15:09.496Z,8.77
2022-12-31T01:17:14.155Z,6.57
2022-12-31T01:19:20.917Z,10.05
2022-12-31T01:21:28.560Z,8.20
2022-12-31T01:23:36.767Z,6.32
2022-12-31T01:25:42.730Z,10.25
2022-12-31T01:27:47.699Z,6.50
2022-12-31T01:29:52.683Z,8.80
2022-12-31T01:31:57.531Z,6.55
2022-12-31T01:34:02.555Z,10.45
2022-12-31T01:36:09.920Z,5.85
2022-12-31T01:38:17.364Z,5.05
2022-12-31T01:40:22.766Z,6.35
2022-12-31T01:42:27.643Z,4.15
2022-12-31T01:44:55.263Z,4.68
2022-12-31T01:47:01.922Z,6.47
2022-12-31T01:49:13.189Z,6.72
2022-12-31T01:51:18.022Z,9.70
2022-12-31T01:53:25.535Z,5.03
2022-12-31T01:55:35.253Z,5.43
2022-12-31T01:57:40.699Z,5.95
2022-12-31T01:59:46.008Z,4.88
2022-12-31T02:01:55.426Z,2.90
2022-12-31T02:04:00.979Z,6.03
2022-12-31T02:06:10.281Z,7.32
2022-12-31T02:08:15.399Z,6.78
2022-12-31T02:10:22.799Z,6.70
2022-12-31T02:12:27.597Z,6.85
2022-12-31T02:14:34.685Z,7.43
2022-12-31T02:16:45.469Z,8.52
2022-12-31T02:18:57.852Z,5.75
2022-12-31T02:21:23.255Z,8.27
2022-12-31T02:24:12.384Z,7.57
2022-12-31T02:26:48.555Z,8.43
2022-12-31T02:29:18.740Z,4.40
2022-12-31T02:31:32.679Z,8.43
2022-12-31T02:33:41.632Z,6.45
2022-12-31T02:35:50.294Z,7.45
2022-12-31T02:38:00.762Z,8.48
2022-12-31T02:40:05.842Z,18.65
2022-12-31T02:42:10.536Z,9.40
2022-12-31T02:44:25.034Z,7.65
2022-12-31T02:46:36.166Z,5.72
2022-12-31T02:48:45.023Z,4.55
2022-12-31T02:50:59.444Z,9.93
2022-12-31T02:53:17.724Z,6.30
2022-12-31T02:55:29.368Z,9.88
2022-12-31T02:57:41.446Z,2.80
2022-12-31T03:00:05.636Z,6.15
2022-12-31T03:02:16.272Z,5.22
2022-12-31T03:04:37.545Z,7.20
2022-12-31T03:06:43.289Z,5.05
2022-12-31T03:09:00.277Z,6.60
2022-12-31T03:11:25.679Z,5.32
2022-12-31T03:13:27.884Z,5.43
2022-12-31T03:15:35.359Z,6.80
2022-12-31T03:17:42.823Z,7.68
2022-12-31T03:20:00.007Z,5.43
2022-12-31T03:22:17.621Z,3.80
2022-12-31T03:24:35.023Z,5.72
2022-12-31T03:26:39.715Z,5.68
2022-12-31T03:28:48.137Z,6.35
2022-12-31T03:30:55.443Z,7.82
2022-12-31T03:33:03.279Z,7.18
2022-12-31T03:35:09.408Z,6.07
2022-12-31T03:37:14.142Z,6.85
2022-12-31T03:39:19.047Z,6.90
2022-12-31T03:41:23.924Z,7.47
2022-12-31T03:43:28.923Z,9.93
2022-12-31T03:45:34.386Z,4.80
2022-12-31T03:47:39.490Z,4.35
2022-12-31T03:49:46.807Z,4.05
2022-12-31T03:51:51.957Z,7.40
2022-12-31T03:53:56.728Z,2.35
2022-12-31T03:56:01.494Z,8.38
2022-12-31T03:58:07.603Z,5.15
2022-12-31T04:00:16.109Z,7.57
2022-12-31T04:02:24.776Z,4.55
2022-12-31T04:04:33.513Z,8.83
2022-12-31T04:06:40.788Z,5.65
2022-12-31T04:08:45.500Z,7.35
2022-12-31T04:10:50.215Z,5.40
2022-12-31T04:12:55.150Z,4.22
2022-12-31T04:15:00.109Z,8.60
2022-12-31T04:17:05.971Z,4.20
2022-12-31T04:19:10.699Z,7.63
2022-12-31T04:21:15.615Z,5.30
2022-12-31T04:23:23.090Z,3.40
2022-12-31T04:25:27.871Z,6.35
2022-12-31T04:27:32.690Z,7.30
2022-12-31T04:29:37.553Z,10.82
2022-12-31T04:31:42.409Z,7.43
2022-12-31T04:33:47.176Z,7.35
2022-12-31T04:35:52.150Z,6.57
2022-12-31T04:37:56.991Z,4.95
2022-12-31T04:40:06.677Z,5.90
2022-12-31T04:42:11.968Z,6.68
2022-12-31T04:44:16.845Z,6.78
2022-12-31T04:46:24.578Z,8.32
2022-12-31T04:48:29.513Z,7.03
2022-12-31T04:50:34.812Z,7.82
2022-12-31T04:52:43.079Z,6.63
2022-12-31T04:54:47.868Z,9.25
2022-12-31T04:56:55.390Z,9.95
2022-12-31T04:59:00.300Z,8.50
2022-12-31T05:01:05.815Z,7.30
2022-12-31T05:03:10.974Z,8.38
2022-12-31T05:05:15.791Z,7.80
2022-12-31T05:07:20.737Z,8.35
2022-12-31T05:09:27.743Z,9.52
2022-12-31T05:11:32.745Z,7.78
2022-12-31T05:13:40.500Z,6.60
2022-12-31T05:15:45.723Z,6.20
2022-12-31T05:17:50.581Z,7.68
2022-12-31T05:19:55.401Z,5.10
2022-12-31T05:22:15.284Z,4.60
2022-12-31T05:24:20.215Z,6.65
2022-12-31T05:26:24.991Z,4.75
2022-12-31T05:28:29.747Z,4.97
2022-12-31T05:30:37.164Z,3.97
2022-12-31T05:32:42.186Z,5.72
2022-12-31T05:34:47.097Z,5.10
2022-12-31T05:36:51.812Z,6.68
2022-12-31T05:38:56.842Z,7.00
2022-12-31T05:41:06.014Z,6.68
2022-12-31T05:43:11.060Z,9.00
2022-12-31T05:45:17.229Z,6.43
2022-12-31T05:47:24.671Z,8.13
2022-12-31T05:49:29.555Z,6.03
2022-12-31T05:51:34.559Z,6.47
2022-12-31T05:53:39.361Z,6.47
2022-12-31T05:55:44.185Z,5.75
2022-12-31T05:57:49.003Z,5.72
2022-12-31T05:59:53.733Z,4.25
2022-12-31T06:01:58.588Z,5.05
2022-12-31T06:04:06.214Z,3.72
2022-12-31T06:06:11.064Z,2.35
2022-12-31T06:08:15.948Z,3.60
2022-12-31T06:10:21.184Z,5.05
2022-12-31T06:12:25.990Z,5.25
2022-12-31T06:14:30.823Z,3.83
2022-12-31T06:16:35.760Z,8.55
2022-12-31T06:18:41.067Z,7.20
2022-12-31T06:20:48.461Z,4.53
2022-12-31T06:22:53.506Z,4.32
2022-12-31T06:24:58.439Z,4.10
2022-12-31T06:27:03.279Z,5.68
2022-12-31T06:29:08.120Z,4.78
2022-12-31T06:31:18.085Z,7.32
2022-12-31T06:33:22.744Z,16.92
2022-12-31T06:35:27.676Z,11.43
2022-12-31T06:37:35.041Z,5.75
2022-12-31T06:39:39.919Z,5.90
2022-12-31T06:41:44.935Z,4.95
2022-12-31T06:43:49.864Z,5.68
2022-12-31T06:45:54.805Z,7.45
2022-12-31T06:47:59.949Z,4.03
2022-12-31T06:50:04.779Z,6.40
2022-12-31T06:52:09.703Z,5.25
2022-12-31T06:54:17.489Z,2.55
2022-12-31T06:56:31.209Z,5.10
2022-12-31T06:58:39.363Z,3.47
2022-12-31T07:00:47.939Z,3.28
2022-12-31T07:03:07.695Z,5.78
2022-12-31T07:05:31.811Z,3.60
2022-12-31T07:07:40.413Z,3.65
2022-12-31T07:09:54.051Z,3.45
2022-12-31T07:12:05.893Z,3.08
2022-12-31T07:14:18.054Z,2.47
2022-12-31T07:16:31.384Z,2.78
2022-12-31T07:18:40.197Z,2.65
2022-12-31T07:20:46.662Z,3.95
2022-12-31T07:22:52.307Z,4.60
2022-12-31T07:25:00.579Z,5.95
2022-12-31T07:27:29.493Z,3.45
2022-12-31T07:29:43.754Z,5.63
2022-12-31T07:32:04.919Z,4.95
2022-12-31T07:34:14.547Z,3.83
2022-12-31T07:36:28.435Z,6.15
2022-12-31T07:38:39.206Z,2.45
2022-12-31T07:40:57.994Z,3.67
2022-12-31T07:43:10.714Z,4.05
2022-12-31T07:45:21.362Z,5.18
2022-12-31T07:47:28.718Z,5.13
2022-12-31T07:49:35.591Z,4.15
2022-12-31T07:51:41.228Z,2.53
2022-12-31T07:53:46.579Z,2.05
2022-12-31T07:55:57.988Z,3.58
2022-12-31T07:58:08.218Z,4.68
2022-12-31T08:00:16.540Z,3.72
2022-12-31T08:02:28.916Z,2.50
2022-12-31T08:04:38.061Z,6.70
2022-12-31T08:06:50.258Z,3.97
2022-12-31T08:09:04.244Z,4.83
2022-12-31T08:11:17.341Z,3.88
2022-12-31T08:15:30.518Z,2.92
2022-12-31T08:17:35.979Z,5.10
2022-12-31T08:19:41.571Z,9.07
2022-12-31T08:21:52.082Z,8.95
2022-12-31T08:24:06.265Z,5.70
2022-12-31T08:26:23.592Z,5.07
2022-12-31T08:28:44.928Z,6.28
2022-12-31T08:30:59.035Z,5.35
2022-12-31T08:33:11.387Z,8.68
2022-12-31T08:35:31.846Z,6.78
2022-12-31T08:37:42.032Z,6.38
2022-12-31T08:39:58.286Z,6.40
2022-12-31T08:42:07.296Z,7.82
2022-12-31T08:44:16.535Z,9.70
2022-12-31T08:46:25.361Z,6.57
2022-12-31T08:48:35.390Z,6.78
2022-12-31T08:50:44.147Z,5.53
2022-12-31T08:52:51.667Z,7.25
2022-12-31T08:54:57.473Z,10.65
2022-12-31T08:57:10.794Z,8.70
2022-12-31T08:59:28.442Z,8.90
2022-12-31T09:01:37.049Z,7.88
2022-12-31T09:03:54.588Z,6.85
2022-12-31T09:06:06.100Z,12.00
2022-12-31T09:08:19.917Z,9.50
2022-12-31T09:10:30.251Z,10.95
2022-12-31T09:12:41.724Z,4.40
2022-12-31T09:14:50.735Z,12.93
2022-12-31T09:17:02.533Z,6.20
2022-12-31T09:19:07.467Z,9.13
2022-12-31T09:21:12.907Z,4.45
2022-12-31T09:23:18.612Z,5.78
2022-12-31T09:25:26.370Z,4.85
2022-12-31T09:27:33.586Z,8.35
2022-12-31T09:29:49.601Z,2.90
2022-12-31T09:32:02.328Z,4.22
2022-12-31T09:34:11.487Z,7.28
2022-12-31T09:36:21.751Z,7.60
2022-12-31T09:38:31.791Z,8.32
2022-12-31T09:41:02.629Z,4.53
2022-12-31T09:43:21.091Z,3.47
2022-12-31T09:45:51.871Z,9.82
2022-12-31T09:48:11.384Z,6.18
2022-12-31T09:50:37.852Z,7.53
2022-12-31T09:52:55.193Z,4.43
2022-12-31T09:55:07.147Z,10.63
2022-12-31T09:57:26.823Z,7.53
2022-12-31T09:59:38.289Z,5.68
2022-12-31T10:01:53.811Z,5.80
2022-12-31T10:04:26.988Z,3.80
2022-12-31T10:06:35.051Z,4.35
2022-12-31T10:08:52.704Z,8.35
2022-12-31T10:11:03.703Z,3.83
2022-12-31T10:13:23.334Z,5.97
2022-12-31T10:15:46.342Z,7.13
2022-12-31T10:18:03.316Z,8.30
2022-12-31T10:20:26.043Z,8.07
2022-12-31T10:22:50.753Z,5.65
2022-12-31T10:25:11.536Z,5.10
2022-12-31T10:27:38.280Z,4.78
2022-12-31T10:29:50.691Z,7.20
2022-12-31T10:32:04.765Z,7.53
2022-12-31T10:34:28.850Z,6.85
2022-12-31T10:36:39.257Z,5.18
2022-12-31T10:38:51.452Z,9.23
2022-12-31T10:41:23.932Z,5.50
2022-12-31T10:44:03.985Z,7.43
2022-12-31T10:46:24.737Z,7.07
2022-12-31T10:48:55.726Z,4.90
2022-12-31T10:51:32.782Z,5.22
2022-12-31T10:54:00.463Z,4.18
2022-12-31T10:56:33.551Z,6.57
2022-12-31T10:58:54.505Z,6.97
2022-12-31T11:01:05.833Z,5.85
2022-12-31T11:03:50.829Z,5.97
2022-12-31T11:06:32.361Z,5.68
2022-12-31T11:08:56.352Z,6.80
2022-12-31T11:11:16.673Z,7.13
2022-12-31T11:13:47.360Z,16.30
2022-12-31T11:18:16.352Z,6.35
2022-12-31T11:20:33.669Z,5.72
2022-12-31T11:22:50.669Z,4.05
2022-12-31T11:25:22.759Z,6.82
2022-12-31T11:27:48.989Z,10.18
2022-12-31T11:30:08.691Z,12.25
2022-12-31T11:32:23.757Z,10.20
2022-12-31T11:34:47.413Z,8.88
2022-12-31T11:37:03.291Z,10.65
2022-12-31T11:39:34.621Z,7.10
2022-12-31T11:41:45.808Z,11.25
2022-12-31T11:43:58.750Z,11.55
2022-12-31T11:46:35.850Z,8.48
2022-12-31T11:48:46.489Z,7.90
2022-12-31T11:50:58.663Z,7.13
2022-12-31T11:53:12.915Z,9.80
2022-12-31T11:55:41.110Z,5.72
2022-12-31T11:57:51.471Z,6.97
2022-12-31T12:00:02.048Z,6.80
2022-12-31T12:02:20.089Z,7.18
2022-12-31T12:04:24.888Z,9.13
2022-12-31T12:06:33.485Z,10.48
2022-12-31T12:08:39.113Z,8.07
2022-12-31T12:10:49.873Z,7.38
2022-12-31T12:12:55.617Z,8.48
2022-12-31T12:15:03.438Z,7.05
2022-12-31T12:17:11.165Z,8.05
2022-12-31T12:19:21.065Z,5.32
2022-12-31T12:21:27.457Z,10.07
2022-12-31T12:23:32.968Z,8.23
2022-12-31T12:25:41.198Z,8.57
2022-12-31T12:27:45.974Z,7.13
2022-12-31T12:29:51.261Z,6.55
2022-12-31T12:32:03.302Z,4.90
2022-12-31T12:34:08.691Z,6.85
2022-12-31T12:36:15.910Z,5.90
2022-12-31T12:38:22.556Z,10.18
2022-12-31T12:40:33.803Z,6.45
2022-12-31T12:42:52.786Z,14.55
2022-12-31T12:45:04.569Z,9.38
2022-12-31T12:47:17.415Z,8.98
2022-12-31T12:49:25.402Z,8.93
2022-12-31T12:51:53.936Z,7.28
2022-12-31T12:54:05.466Z,8.90
2022-12-31T12:56:19.718Z,4.60
2022-12-31T12:58:37.634Z,7.85
2022-12-31T13:00:47.641Z,6.40
2022-12-31T13:03:10.566Z,6.53
2022-12-31T13:05:27.900Z,10.13
2022-12-31T13:07:41.529Z,10.88
2022-12-31T13:09:56.934Z,7.05
2022-12-31T13:12:10.765Z,6.78
2022-12-31T13:14:22.609Z,24.33
2022-12-31T13:16:34.980Z,14.13
2022-12-31T13:18:51.408Z,7.13
2022-12-31T13:20:58.940Z,7.47
2022-12-31T13:23:08.808Z,5.70
2022-12-31T13:25:26.184Z,8.38
2022-12-31T13:27:33.412Z,7.00
2022-12-31T13:29:38.848Z,6.00
2022-12-31T13:31:44.514Z,6.57
2022-12-31T13:33:55.935Z,9.57
2022-12-31T13:36:01.999Z,8.13
2022-12-31T13:38:09.891Z,6.05
2022-12-31T13:40:22.816Z,7.93
2022-12-31T13:42:31.887Z,13.88
2022-12-31T13:44:41.044Z,13.70
2022-12-31T13:46:50.043Z,10.93
2022-12-31T13:49:01.647Z,9.60
2022-12-31T13:51:11.008Z,7.20
2022-12-31T13:53:19.750Z,9.32
2022-12-31T13:55:27.620Z,7.00
2022-12-31T13:57:45.070Z,8.77
2022-12-31T13:59:53.794Z,5.05
2022-12-31T14:02:02.253Z,13.13
2022-12-31T14:04:15.954Z,11.32
2022-12-31T14:06:28.120Z,9.05
2022-12-31T14:08:33.047Z,11.57
2022-12-31T14:10:44.677Z,8.23
2022-12-31T14:12:55.357Z,6.22
2022-12-31T14:15:10.500Z,8.65
2022-12-31T14:17:22.376Z,7.05
2022-12-31T14:19:51.384Z,8.93
2022-12-31T14:22:03.495Z,11.68
2022-12-31T14:24:16.678Z,6.07
2022-12-31T14:28:34.758Z,10.80
2022-12-31T14:30:40.931Z,9.70
2022-12-31T14:33:09.082Z,8.80
2022-12-31T14:35:33.406Z,15.68
2022-12-31T14:37:44.745Z,25.52
2022-12-31T14:40:10.580Z,12.25
2022-12-31T14:42:24.031Z,14.30
2022-12-31T14:44:39.886Z,9.82
2022-12-31T14:46:55.829Z,13.02
2022-12-31T14:49:07.573Z,11.73
2022-12-31T14:51:18.151Z,10.40
2022-12-31T14:53:26.866Z,16.00
2022-12-31T14:55:33.829Z,17.70
2022-12-31T14:58:09.542Z,17.10
2022-12-31T15:00:25.746Z,16.65
2022-12-31T15:02:32.143Z,11.25
2022-12-31T15:04:45.738Z,15.20
2022-12-31T15:07:05.867Z,11.15
2022-12-31T15:09:19.772Z,13.52
2022-12-31T15:11:37.689Z,13.27
2022-12-31T15:13:52.661Z,15.32
2022-12-31T15:16:08.787Z,12.32
2022-12-31T15:18:36.879Z,12.25
2022-12-31T15:20:56.972Z,11.40
2022-12-31T15:23:04.496Z,15.40
2022-12-31T15:25:40.565Z,16.15
2022-12-31T15:27:49.715Z,16.80
2022-12-31T15:29:54.734Z,18.42
2022-12-31T15:32:00.113Z,16.80
2022-12-31T15:34:06.945Z,15.55
2022-12-31T15:36:18.424Z,15.23
2022-12-31T15:38:41.481Z,17.92
2022-12-31T15:40:47.405Z,10.32
2022-12-31T15:42:55.657Z,12.45
2022-12-31T15:45:06.869Z,12.20
2022-12-31T15:47:19.021Z,14.15
2022-12-31T15:49:26.633Z,15.10
2022-12-31T15:51:33.887Z,20.45
2022-12-31T15:53:44.588Z,23.20
2022-12-31T15:55:52.621Z,16.20
2022-12-31T15:58:00.410Z,15.90
2022-12-31T16:00:08.898Z,13.35
2022-12-31T16:02:23.030Z,13.20
2022-12-31T16:04:30.636Z,16.30
2022-12-31T16:06:38.242Z,12.18
2022-12-31T16:08:48.099Z,13.13
2022-12-31T16:10:53.103Z,13.68
2022-12-31T16:12:58.836Z,16.90
2022-12-31T16:15:03.738Z,12.95
2022-12-31T16:17:09.016Z,15.65
2022-12-31T16:19:36.349Z,15.25
2022-12-31T16:21:41.865Z,11.68
2022-12-31T16:23:56.793Z,16.10
2022-12-31T16:26:05.100Z,13.98
2022-12-31T16:28:10.157Z,16.02
2022-12-31T16:30:23.276Z,16.98
2022-12-31T16:34:32.625Z,19.08
2022-12-31T16:36:37.612Z,16.20
2022-12-31T16:38:42.558Z,14.90
2022-12-31T16:41:10.229Z,15.70
2022-12-31T16:43:29.299Z,16.77
2022-12-31T16:45:36.758Z,13.65
2022-12-31T16:47:44.567Z,14.13
2022-12-31T16:49:51.630Z,16.67
2022-12-31T16:51:58.721Z,15.75
2022-12-31T16:54:04.865Z,12.85
2022-12-31T16:56:12.570Z,14.95
2022-12-31T16:58:21.805Z,13.43
2022-12-31T17:00:27.925Z,18.45
2022-12-31T17:02:37.834Z,13.82
2022-12-31T17:04:48.055Z,21.55
2022-12-31T17:06:56.262Z,56.63
2022-12-31T17:09:14.068Z,19.05
2022-12-31T17:11:28.856Z,14.40
2022-12-31T17:13:37.452Z,56.00
2022-12-31T17:15:43.750Z,10.93
2022-12-31T17:17:53.414Z,13.93
2022-12-31T17:20:02.013Z,18.38
2022-12-31T17:22:07.747Z,17.67
2022-12-31T17:24:24.139Z,88.15
2022-12-31T17:26:36.560Z,42.72
2022-12-31T17:28:46.004Z,20.02
2022-12-31T17:30:51.246Z,16.05
2022-12-31T17:33:01.870Z,24.98
2022-12-31T17:35:30.633Z,12.98
2022-12-31T17:37:38.881Z,16.27
2022-12-31T17:39:49.940Z,11.45
2022-12-31T17:42:02.805Z,11.00
2022-12-31T17:44:07.802Z,10.48
2022-12-31T17:46:14.722Z,12.38
2022-12-31T17:48:23.013Z,13.63
2022-12-31T17:50:29.437Z,12.25
2022-12-31T17:52:36.942Z,8.95
2022-12-31T17:54:42.272Z,14.52
2022-12-31T17:56:47.841Z,14.50
2022-12-31T17:58:56.094Z,16.88
2022-12-31T18:01:01.623Z,25.50
2022-12-31T18:03:07.890Z,17.60
2022-12-31T18:05:17.694Z,14.70
2022-12-31T18:07:24.570Z,13.40
2022-12-31T18:09:29.603Z,35.03
2022-12-31T18:11:34.917Z,18.45
2022-12-31T18:13:40.098Z,11.25
2022-12-31T18:15:48.059Z,15.07
2022-12-31T18:17:53.397Z,17.52
2022-12-31T18:20:06.361Z,18.45
2022-12-31T18:22:15.869Z,24.75
2022-12-31T18:24:25.908Z,17.25
2022-12-31T18:26:32.779Z,12.48
2022-12-31T18:28:37.899Z,11.52
2022-12-31T18:30:43.470Z,12.27
2022-12-31T18:32:50.975Z,28.38
2022-12-31T18:34:56.033Z,19.55
2022-12-31T18:37:00.820Z,19.13
2022-12-31T18:39:05.665Z,20.85
2022-12-31T18:41:12.535Z,14.23
2022-12-31T18:43:19.514Z,20.02
2022-12-31T18:45:34.295Z,11.88
2022-12-31T18:47:39.707Z,14.10
2022-12-31T18:49:48.782Z,9.07
2022-12-31T18:51:55.789Z,10.27
2022-12-31T18:54:00.800Z,14.15
2022-12-31T18:56:05.618Z,10.82
2022-12-31T18:58:10.856Z,11.30
2022-12-31T19:00:16.851Z,18.75
2022-12-31T19:02:23.452Z,18.17
2022-12-31T19:04:28.584Z,21.63
2022-12-31T19:06:35.998Z,18.67
2022-12-31T19:08:41.121Z,10.25
2022-12-31T19:10:45.964Z,33.45
2022-12-31T19:12:51.185Z,16.42
2022-12-31T19:14:55.914Z,45.00
2022-12-31T19:19:08.563Z,12.80
2022-12-31T19:21:25.390Z,11.95
2022-12-31T19:23:33.496Z,18.10
2022-12-31T19:25:39.265Z,11.40
2022-12-31T19:27:43.930Z,11.05
2022-12-31T19:29:48.720Z,14.80
2022-12-31T19:31:53.857Z,20.33
2022-12-31T19:33:59.124Z,10.65
2022-12-31T19:36:04.227Z,16.10
2022-12-31T19:38:15.213Z,13.85
2022-12-31T19:40:24.703Z,12.48
2022-12-31T19:42:32.153Z,16.40
2022-12-31T19:44:38.969Z,13.07
2022-12-31T19:46:43.724Z,14.13
2022-12-31T19:48:48.848Z,12.75
2022-12-31T19:50:56.643Z,12.65
2022-12-31T19:53:01.880Z,14.98
2022-12-31T19:55:07.030Z,15.63
2022-12-31T19:57:14.415Z,19.95
2022-12-31T19:59:19.375Z,17.10
2022-12-31T20:01:25.644Z,14.93
2022-12-31T20:03:31.532Z,12.05
2022-12-31T20:05:36.491Z,16.50
2022-12-31T20:07:41.523Z,19.13
2022-12-31T20:09:46.105Z,15.35
2022-12-31T20:11:51.013Z,21.15
2022-12-31T20:13:58.404Z,15.82
2022-12-31T20:16:03.082Z,13.52
2022-12-31T20:18:08.334Z,19.25
2022-12-31T20:20:14.402Z,21.27
2022-12-31T20:22:19.933Z,20.23
2022-12-31T20:24:25.994Z,39.88
2022-12-31T20:26:30.834Z,17.55
2022-12-31T20:28:35.506Z,31.20
2022-12-31T20:30:43.180Z,19.70
2022-12-31T20:32:47.981Z,16.60
2022-12-31T20:34:52.647Z,22.63
2022-12-31T20:36:57.611Z,23.13
2022-12-31T20:39:02.414Z,22.60
2022-12-31T20:41:07.814Z,25.40
2022-12-31T20:43:12.821Z,22.00
2022-12-31T20:45:17.598Z,19.75
2022-12-31T20:47:28.068Z,19.70
2022-12-31T20:50:09.161Z,20.30
2022-12-31T20:51:57.414Z,16.63
2022-12-31T20:54:04.385Z,22.00
2022-12-31T20:56:12.402Z,17.45
2022-12-31T20:58:17.272Z,14.23
2022-12-31T21:00:22.647Z,13.57
2022-12-31T21:02:41.433Z,19.60
2022-12-31T21:04:47.592Z,18.85
2022-12-31T21:06:54.422Z,17.80
2022-12-31T21:09:00.289Z,18.98
2022-12-31T21:11:26.556Z,14.10
2022-12-31T21:13:28.837Z,15.32
2022-12-31T21:15:35.775Z,18.33
2022-12-31T21:17:43.245Z,12.52
2022-12-31T21:19:48.370Z,13.75
2022-12-31T21:21:53.366Z,22.95
2022-12-31T21:23:58.187Z,15.30
2022-12-31T21:26:02.855Z,18.83
2022-12-31T21:28:07.978Z,16.70
2022-12-31T21:30:21.050Z,18.90
2022-12-31T21:34:33.782Z,13.45
2022-12-31T21:36:38.528Z,16.90
2022-12-31T21:38:43.198Z,16.73
2022-12-31T21:40:48.001Z,16.08
2022-12-31T21:42:52.772Z,17.27
2022-12-31T21:44:57.939Z,17.23
2022-12-31T21:47:46.958Z,15.15
2022-12-31T21:49:51.786Z,13.60
2022-12-31T21:52:23.933Z,16.30
2022-12-31T21:54:41.105Z,14.48
2022-12-31T21:56:45.906Z,16.52
2022-12-31T21:59:12.172Z,16.15
2022-12-31T22:01:32.785Z,20.55
2022-12-31T22:03:35.655Z,16.77
2022-12-31T22:07:47.599Z,15.38
2022-12-31T22:09:52.558Z,16.98
2022-12-31T22:11:57.301Z,15.32
2022-12-31T22:14:02.041Z,22.35
2022-12-31T22:16:07.460Z,16.30
2022-12-31T22:18:12.411Z,16.05
2022-12-31T22:20:26.877Z,20.23
2022-12-31T22:22:35.759Z,13.32
2022-12-31T22:24:40.836Z,14.35
2022-12-31T22:26:46.897Z,25.10
2022-12-31T22:28:52.472Z,25.23
2022-12-31T22:30:57.651Z,17.17
2022-12-31T22:33:02.450Z,18.05
2022-12-31T22:35:08.162Z,21.10
2022-12-31T22:37:35.662Z,17.02
2022-12-31T22:39:44.778Z,19.55
2022-12-31T22:41:49.857Z,18.70
2022-12-31T22:44:02.661Z,15.75
2022-12-31T22:46:12.637Z,17.98
2022-12-31T22:48:17.479Z,15.80
2022-12-31T22:50:22.321Z,18.77
2022-12-31T22:52:27.783Z,19.80
2022-12-31T22:54:32.790Z,18.63
2022-12-31T22:56:40.303Z,16.67
2022-12-31T22:58:45.546Z,18.50
2022-12-31T23:00:50.812Z,15.95
2022-12-31T23:02:55.543Z,27.40
2022-12-31T23:05:15.816Z,25.10
2022-12-31T23:07:21.229Z,50.70
2022-12-31T23:09:38.477Z,62.17
2022-12-31T23:11:46.105Z,80.30
2022-12-31T23:14:03.241Z,117.32
2022-12-31T23:16:21.019Z,114.90
2022-12-31T23:18:38.213Z,69.07
2022-12-31T23:20:55.497Z,105.00
2022-12-31T23:23:10.792Z,123.60
2022-12-31T23:25:15.416Z,121.55
2022-12-31T23:27:22.798Z,104.82
2022-12-31T23:29:28.337Z,126.13
2022-12-31T23:31:34.133Z,68.43
2022-12-31T23:33:38.978Z,73.95
2022-12-31T23:35:43.766Z,81.43
2022-12-31T23:37:48.560Z,57.20
2022-12-31T23:39:53.329Z,64.82
2022-12-31T23:42:00.828Z,60.63
2022-12-31T23:44:10.021Z,55.63
2022-12-31T23:46:15.897Z,47.42
2022-12-31T23:48:20.707Z,60.75
2022-12-31T23:50:25.574Z,61.00
2022-12-31T23:52:30.971Z,66.38
2022-12-31T23:54:35.692Z,58.65
2022-12-31T23:56:40.515Z,45.38
2022-12-31T23:58:45.535Z,58.83
